Hovedside
METAR-TAF:

METAR-TAF

Lufthavner :

Oujda, Marokko

breddegrad: 34-47N, lengdegrad: 001-56W, høyde over havet: 468 m

Gjeldene værobservasjon

Denne rapporten ble laget for 24 minutter siden, klokken 09:30 UTC
Vind 24 kt fra Vest-sørvest
Temperatur 15°C
Luftfuktighet 59%
Trykk 1012 hPa
Sikt 10 km eller mer
Få skyer i en høyde av 3300 ft
Spredte skyer i en høyde av 23000 ft

METAR: GMFO 260930Z 25024KT 9999 FEW033 SCT230 15/07 Q1012 NOSIG

Tid: 10:54 (09:54 UTC)

Varsel

Denne rapporten ble laget for 4 timer og 54 minutter siden, klokken 05:00 UTC
Varsel gyldig fra 26. klokken 06 UTC til 27. klokken 12 UTC
Vind 12 kt fra Vest
Sikt 10 km eller mer
ingen skyer under 1500 m og ingen bygeskyer
Blir
fra 26. klokken 16 UTC til 26. klokken 20 UTC
Vind 17 kt fra Nord
Spredte skyer i en høyde av 2600 ft

TAF: GMFO 260500Z 2606/2712 26012KT CAVOK BECMG 2616/2620 36017KT SCT026

Værobservasjoner og værvarsel for over 4000 flyplasser (METAR- og TAF-rapporter).

Tilgjengelige stasjoner er representert av de røde og gule prikkene på kartet.

Hold musepekeren over prikken for å se navnet på stasjonen.

Klikk så for å se værobservasjoner og -varsler.

For å forandre kartet kan du klikke på den grønne knappen med svart kryss for å zoome inn, på den grønne knappen med strek for å zoome ut, eller på de grønne pilene for å se tilstøtende kart.


METAR-TAF: